Terminal Aerodrome Forecast
Issued by NWS Jackson, KY

Home | Current Version | Previous Version | Text Only | Print | Product List | Glossary On
Versions: 1 2 3 4 5 6 7 8 9 10 11 12 13 14 15
807
FTUS43 KJKL 191741
TAFLOZ
TAF
KLOZ 191741Z 1918/2018 VRB03KT P6SM SCT050
     FM191900 VRB05KT P6SM VCTS BKN050CB
     FM200100 VRB03KT P6SM SCT060
      TEMPO 2008/2012 3SM BR=

USA.gov is the U.S. government's official web portal to all federal, state and local government web resources and services.